Victor Harbour, South Australia

12:42 PM CST on August 28, 2014 (GMT +0930)
Aldinga Beach | Change Station
CLOSE
Current Station
Personal Weather Station
Location: ALDINGA BEACH, SOUTH AUSTRALIA
Elevation: 79 ft
Nearby Weather Stations

Elev 79 ft 35.28 °S, 138.47 °E | Updated 6 seconds ago

Clear
Clear
77.9 °F
Feels Like 78 °F
N
3.1
Wind Variable Wind from NW
Gusts 3.8 mph

Today
High -- | Low -- °F
--% Chance of Precip.
Yesterday
High -- | Low -- °F
Precip. -- in
6:41 AM 5:52 PM
Waxing Crescent, 6% visible
Pressure 30.36 in
Visibility -9999.0 miles
Clouds
Heat Index 78 °F
Dew Point 50 °F
Humidity 37%
Rainfall 0.00 in
Snow Depth Not available.
UV 14.0 out of 12
Pollen Not available.
Air Quality Not available.
Flu Activity Not available.
METAR YPAD 280300Z 25010KT CAVOK 16/10 Q1028 NOSIG

More Conditions Fewer Conditions

Pressure 30.36 in
Visibility -9999.0 miles
Clouds
Heat Index 78 °F
Dew Point 50 °F
Humidity 37%
Rainfall 0.00 in
Snow Depth Not available.
UV 14.0 out of 12
Pollen Not available.
Air Quality Not available.
Flu Activity Not available.
METAR YPAD 280300Z 25010KT CAVOK 16/10 Q1028 NOSIG

More Conditions Fewer Conditions

10-Day Weather Forecast

Almanac

Astronomy

Aug. 28, 2014 Rise Set
Actual Time 6:41 AM CST 5:52 PM CST
Civil Twilight 6:15 AM CST 6:18 PM CST
Nautical Twilight 5:45 AM CST 6:48 PM CST
Astronomical Twilight 5:16 AM CST 7:17 PM CST
Moon 7:44 AM CST 8:21 PM CST
Length of Visible Light 12h 03m
Length of Day
11h 11m
Tomorrow will be 2m 5s longer.
Waxing Crescent, 6% of the Moon is Illuminated
Aug 27
Waxing Crescent
Sep 2
First Quarter
Sep 8
Full
Sep 15
Last Quarter
Sep 24
New

Yesterday's Extremes

Country Highs Country Lows

Community

WunderPhotos

Upload Photos

1,747,892 photos uploaded!

Nearby

Snow Depth

Not available.

Earthquake Activity

City Distance Mag. Time & Date
No recent earthquake activity has been reported nearby.
Minimum magnitude displayed is 2.5.

Coastal Water Temperatures

Place Temperature
No Stations Reporting

Nearby Weather Stations